»·PEaware :: N780MZ KGEG-KPDX

N780MZ :: KGEG-KPDX

FLIGHT INFORMATION

Flight Status: Arrived
Operator: Privately registered:
United States
More flights under this callsign
Pilot: Elliott T. (30246)
Aircraft: SOCATA TBM-900
(TBM9)
More flights by this aircraft type
Origin: KGEG Spokane Intl
United States
Destination: KPDX Portland Intl
United States
More flights between these airports :: More routes between these airports
Route:
File this flight plan on PilotEdge
Remarks:
Altitude:
(Current/Filed)
16,500ft
Speed:
(Current/Filed)
200kts
Departed: 01-Aug-20 04:48 PM
Arrived: 01-Aug-20 05:57 PM
Distance/Time
Traveled:
241nm/1:09
Distance/Time
To Go:
Arrived

Flight Plot

Page will automatically refresh every two minutes.


Map Options




Map Legend


Flown Route
Filed Route
Departure Airport
Arrival Airport
Navaid (VOR, NDB)
Fix

Horizontal Profiles

Position Reports

Time Latitude Longitude Heading Altitude Ground
Speed
01-Aug-20 16:20 47.619058 -117.524627 180 2364ft 0kts
01-Aug-20 16:21 47.619058 -117.524627 179 2364ft 0kts
01-Aug-20 16:22 47.619058 -117.524627 179 2364ft 0kts
01-Aug-20 16:23 47.619058 -117.524627 179 2364ft 0kts
01-Aug-20 16:24 47.619058 -117.524627 179 2364ft 0kts
01-Aug-20 16:25 47.619058 -117.524627 179 2364ft 0kts
01-Aug-20 16:26 47.619058 -117.524627 179 2364ft 0kts
01-Aug-20 16:27 47.619058 -117.524627 179 2364ft 0kts
01-Aug-20 16:28 47.619058 -117.524627 179 2364ft 0kts
01-Aug-20 16:29 47.619058 -117.524627 179 2364ft 0kts
01-Aug-20 16:30 47.619058 -117.524627 179 2364ft 0kts
01-Aug-20 16:31 47.619058 -117.524627 179 2364ft 0kts
01-Aug-20 16:32 47.619058 -117.524627 179 2364ft 0kts
01-Aug-20 16:33 47.619058 -117.524627 179 2364ft 0kts
01-Aug-20 16:34 47.619058 -117.524627 179 2364ft 0kts
01-Aug-20 16:35 47.619058 -117.524627 180 2364ft 0kts
01-Aug-20 16:36 47.619058 -117.524627 180 2364ft 0kts
01-Aug-20 16:37 47.619058 -117.524627 179 2364ft 0kts
01-Aug-20 16:38 47.619058 -117.524627 179 2364ft 0kts
01-Aug-20 16:39 47.618992 -117.524627 176 2364ft 1kts
01-Aug-20 16:40 47.618396 -117.524338 170 2365ft 0kts
01-Aug-20 16:41 47.618396 -117.524338 170 2365ft 0kts
01-Aug-20 16:42 47.617876 -117.522029 91 2367ft 13kts
01-Aug-20 16:43 47.617682 -117.520332 138 2368ft 0kts
01-Aug-20 16:44 47.617682 -117.520332 138 2368ft 0kts
01-Aug-20 16:45 47.617682 -117.520332 138 2368ft 0kts
01-Aug-20 16:46 47.617496 -117.520216 175 2369ft 3kts
01-Aug-20 16:47 47.616814 -117.533889 268 2510ft 113kts
01-Aug-20 16:48 47.615833 -117.584020 249 4347ft 140kts
01-Aug-20 16:49 47.587038 -117.630965 210 6269ft 161kts
01-Aug-20 16:50 47.543274 -117.636266 216 8377ft 170kts
01-Aug-20 16:51 47.505699 -117.680080 214 10390ft 175kts
01-Aug-20 16:52 47.466325 -117.725341 224 12564ft 184kts
01-Aug-20 16:53 47.433299 -117.782006 212 14733ft 184kts
01-Aug-20 16:54 47.392197 -117.828574 215 16521ft 195kts
01-Aug-20 16:55 47.340971 -117.883047 212 16530ft 248kts
01-Aug-20 16:56 47.282871 -117.947728 215 16520ft 269kts
01-Aug-20 16:57 47.222850 -118.016154 215 16519ft 266kts
01-Aug-20 16:58 47.163526 -118.083751 215 16518ft 273kts
01-Aug-20 16:59 47.102869 -118.152893 215 16517ft 276kts
01-Aug-20 17:00 47.042082 -118.222245 215 16516ft 276kts
01-Aug-20 17:01 46.981270 -118.291645 215 16501ft 275kts
01-Aug-20 17:02 46.920868 -118.360609 216 16478ft 270kts
01-Aug-20 17:03 46.862945 -118.426756 216 16467ft 263kts
01-Aug-20 17:04 46.804868 -118.492929 215 16466ft 263kts
01-Aug-20 17:05 46.752698 -118.568815 232 16456ft 266kts
01-Aug-20 17:06 46.712142 -118.658784 233 16460ft 265kts
01-Aug-20 17:07 46.656612 -118.726189 213 16450ft 261kts
01-Aug-20 17:08 46.596694 -118.786725 213 16440ft 261kts
01-Aug-20 17:09 46.537049 -118.847016 213 16436ft 262kts
01-Aug-20 17:10 46.477068 -118.907640 215 16417ft 262kts
01-Aug-20 17:11 46.416769 -118.968443 215 16417ft 264kts
01-Aug-20 17:12 46.355896 -119.029324 215 16417ft 265kts
01-Aug-20 17:13 46.295081 -119.090047 217 16410ft 266kts
01-Aug-20 17:14 46.253732 -119.178011 251 16400ft 267kts
01-Aug-20 17:15 46.227321 -119.278432 247 16398ft 267kts
01-Aug-20 17:16 46.200683 -119.379364 247 16397ft 268kts
01-Aug-20 17:17 46.174083 -119.480520 248 16396ft 269kts
01-Aug-20 17:18 46.147613 -119.581550 248 16396ft 269kts
01-Aug-20 17:19 46.121556 -119.681078 247 16399ft 269kts
01-Aug-20 17:20 46.095081 -119.782376 247 16398ft 269kts
01-Aug-20 17:21 46.068753 -119.883495 247 16399ft 269kts
01-Aug-20 17:22 46.042572 -119.984368 247 16403ft 269kts
01-Aug-20 17:23 46.016311 -120.085813 248 16418ft 269kts
01-Aug-20 17:24 45.990275 -120.186664 248 16434ft 268kts
01-Aug-20 17:25 45.963908 -120.287389 244 16439ft 268kts
01-Aug-20 17:26 45.914626 -120.366765 224 16442ft 267kts
01-Aug-20 17:27 45.856191 -120.432153 212 16448ft 268kts
01-Aug-20 17:28 45.819943 -120.521637 249 16451ft 269kts
01-Aug-20 17:29 45.779098 -120.610720 233 16453ft 268kts
01-Aug-20 17:30 45.754791 -120.710277 257 16456ft 271kts
01-Aug-20 17:31 45.738053 -120.815461 254 16455ft 270kts
01-Aug-20 17:32 45.726261 -120.922283 260 16455ft 271kts
01-Aug-20 17:33 45.717359 -121.029832 261 16454ft 272kts
01-Aug-20 17:34 45.713217 -121.137911 263 16454ft 272kts
01-Aug-20 17:35 45.711057 -121.246714 264 16454ft 273kts
01-Aug-20 17:36 45.710883 -121.355631 268 16454ft 274kts
01-Aug-20 17:37 45.715330 -121.462674 267 15478ft 244kts
01-Aug-20 17:38 45.717018 -121.552637 267 14220ft 213kts
01-Aug-20 17:39 45.718826 -121.635227 267 12949ft 202kts
01-Aug-20 17:40 45.720310 -121.712121 266 11423ft 186kts
01-Aug-20 17:41 45.718954 -121.784523 255 9922ft 177kts
01-Aug-20 17:42 45.701625 -121.848321 234 8425ft 172kts
01-Aug-20 17:43 45.674838 -121.903961 234 6907ft 159kts
01-Aug-20 17:44 45.650461 -121.954001 234 5561ft 169kts
01-Aug-20 17:45 45.621041 -122.015600 240 4443ft 199kts
01-Aug-20 17:47 45.594956 -122.085409 244 3474ft 191kts
01-Aug-20 17:48 45.575294 -122.148960 248 3515ft 166kts
01-Aug-20 17:49 45.558414 -122.211170 251 3518ft 168kts
01-Aug-20 17:50 45.545377 -122.277316 254 3212ft 171kts
01-Aug-20 17:51 45.536705 -122.342374 271 2810ft 171kts
01-Aug-20 17:52 45.537741 -122.408592 265 2368ft 168kts
01-Aug-20 17:53 45.547203 -122.473284 298 1479ft 158kts
01-Aug-20 17:54 45.564491 -122.517734 299 883ft 97kts
01-Aug-20 17:55 45.575634 -122.546477 298 379ft 78kts
01-Aug-20 17:56 45.586226 -122.573641 299 20ft 66kts
01-Aug-20 17:57 45.588872 -122.582006 213 19ft 11kts
01-Aug-20 17:58 45.587027 -122.578949 120 20ft 5kts
01-Aug-20 17:59 45.584924 -122.577522 215 19ft 13kts

Navigation Log

Ident Type
Flight plan parsing failed, navigation log unavailable